sensor_id;sensor_type;location;lat;lon;timestamp;temperature;humidity
8342;DHT22;4208;49.406;10.788;2022-08-19T00:01:57;21.50;89.30
8342;DHT22;4208;49.406;10.788;2022-08-19T00:04:28;21.50;89.40
8342;DHT22;4208;49.406;10.788;2022-08-19T00:06:59;21.50;89.50
8342;DHT22;4208;49.406;10.788;2022-08-19T00:09:28;21.50;89.40
8342;DHT22;4208;49.406;10.788;2022-08-19T00:11:58;21.50;89.90
8342;DHT22;4208;49.406;10.788;2022-08-19T00:14:27;21.50;89.20
8342;DHT22;4208;49.406;10.788;2022-08-19T00:17:00;21.40;89.10
8342;DHT22;4208;49.406;10.788;2022-08-19T00:19:29;21.40;89.30
8342;DHT22;4208;49.406;10.788;2022-08-19T00:22:00;21.40;89.20
8342;DHT22;4208;49.406;10.788;2022-08-19T00:24:29;21.30;89.20
8342;DHT22;4208;49.406;10.788;2022-08-19T00:26:58;21.30;89.20
8342;DHT22;4208;49.406;10.788;2022-08-19T00:29:48;21.30;89.30
8342;DHT22;4208;49.406;10.788;2022-08-19T00:32:19;21.20;89.30
8342;DHT22;4208;49.406;10.788;2022-08-19T00:34:50;21.20;89.40
8342;DHT22;4208;49.406;10.788;2022-08-19T00:37:23;21.20;89.40
8342;DHT22;4208;49.406;10.788;2022-08-19T00:39:54;21.10;89.40
8342;DHT22;4208;49.406;10.788;2022-08-19T00:42:24;21.10;89.50
8342;DHT22;4208;49.406;10.788;2022-08-19T00:44:55;21.10;89.60
8342;DHT22;4208;49.406;10.788;2022-08-19T00:47:24;21.10;89.60
8342;DHT22;4208;49.406;10.788;2022-08-19T00:49:57;21.10;89.70
8342;DHT22;4208;49.406;10.788;2022-08-19T00:52:30;21.00;89.70
8342;DHT22;4208;49.406;10.788;2022-08-19T00:55:02;20.90;89.60
8342;DHT22;4208;49.406;10.788;2022-08-19T00:57:36;20.90;89.60
8342;DHT22;4208;49.406;10.788;2022-08-19T01:00:08;20.90;89.70
8342;DHT22;4208;49.406;10.788;2022-08-19T01:02:39;20.80;89.80
8342;DHT22;4208;49.406;10.788;2022-08-19T01:05:11;20.80;89.90
8342;DHT22;4208;49.406;10.788;2022-08-19T01:07:43;20.80;90.00
8342;DHT22;4208;49.406;10.788;2022-08-19T01:10:16;20.70;90.00
8342;DHT22;4208;49.406;10.788;2022-08-19T01:12:47;20.80;90.10
8342;DHT22;4208;49.406;10.788;2022-08-19T01:15:18;20.80;90.10
8342;DHT22;4208;49.406;10.788;2022-08-19T01:17:48;20.80;90.10
8342;DHT22;4208;49.406;10.788;2022-08-19T01:20:20;20.80;90.10
8342;DHT22;4208;49.406;10.788;2022-08-19T01:22:54;20.80;90.10
8342;DHT22;4208;49.406;10.788;2022-08-19T01:25:26;20.80;90.10
8342;DHT22;4208;49.406;10.788;2022-08-19T01:27:56;20.80;90.00
8342;DHT22;4208;49.406;10.788;2022-08-19T01:30:37;20.80;90.00
8342;DHT22;4208;49.406;10.788;2022-08-19T01:33:10;20.80;90.00
8342;DHT22;4208;49.406;10.788;2022-08-19T01:35:40;20.90;90.00
8342;DHT22;4208;49.406;10.788;2022-08-19T01:38:19;20.90;90.00
8342;DHT22;4208;49.406;10.788;2022-08-19T01:40:48;20.90;90.00
8342;DHT22;4208;49.406;10.788;2022-08-19T01:43:17;20.90;90.30
8342;DHT22;4208;49.406;10.788;2022-08-19T01:45:46;20.90;90.10
8342;DHT22;4208;49.406;10.788;2022-08-19T01:48:15;20.80;90.00
8342;DHT22;4208;49.406;10.788;2022-08-19T01:50:44;20.90;90.00
8342;DHT22;4208;49.406;10.788;2022-08-19T01:53:14;20.80;90.00
8342;DHT22;4208;49.406;10.788;2022-08-19T01:55:43;20.80;90.00
8342;DHT22;4208;49.406;10.788;2022-08-19T01:58:15;20.80;90.00
8342;DHT22;4208;49.406;10.788;2022-08-19T02:00:46;20.80;90.00
8342;DHT22;4208;49.406;10.788;2022-08-19T02:03:15;20.80;89.90
8342;DHT22;4208;49.406;10.788;2022-08-19T02:05:44;20.80;89.80
8342;DHT22;4208;49.406;10.788;2022-08-19T02:08:14;20.80;89.90
8342;DHT22;4208;49.406;10.788;2022-08-19T02:10:43;20.80;89.90
8342;DHT22;4208;49.406;10.788;2022-08-19T02:13:13;20.80;89.80
8342;DHT22;4208;49.406;10.788;2022-08-19T02:15:41;20.80;89.50
8342;DHT22;4208;49.406;10.788;2022-08-19T02:18:10;20.80;89.30
8342;DHT22;4208;49.406;10.788;2022-08-19T02:20:40;20.80;89.10
8342;DHT22;4208;49.406;10.788;2022-08-19T02:23:11;20.80;89.00
8342;DHT22;4208;49.406;10.788;2022-08-19T02:25:46;20.90;89.00
8342;DHT22;4208;49.406;10.788;2022-08-19T02:28:15;20.90;89.00
8342;DHT22;4208;49.406;10.788;2022-08-19T02:30:46;20.80;89.00
8342;DHT22;4208;49.406;10.788;2022-08-19T02:33:15;20.90;88.90
8342;DHT22;4208;49.406;10.788;2022-08-19T02:35:45;20.80;88.80
8342;DHT22;4208;49.406;10.788;2022-08-19T02:38:15;20.80;88.70
8342;DHT22;4208;49.406;10.788;2022-08-19T02:40:56;20.80;88.80
8342;DHT22;4208;49.406;10.788;2022-08-19T02:43:27;20.80;88.80
8342;DHT22;4208;49.406;10.788;2022-08-19T02:46:01;20.80;88.80
8342;DHT22;4208;49.406;10.788;2022-08-19T02:48:30;20.80;88.90
8342;DHT22;4208;49.406;10.788;2022-08-19T02:51:00;20.80;89.00
8342;DHT22;4208;49.406;10.788;2022-08-19T02:53:29;20.80;89.00
8342;DHT22;4208;49.406;10.788;2022-08-19T02:55:59;20.80;89.10
8342;DHT22;4208;49.406;10.788;2022-08-19T02:58:28;20.80;89.00
8342;DHT22;4208;49.406;10.788;2022-08-19T03:00:57;20.80;89.00
8342;DHT22;4208;49.406;10.788;2022-08-19T03:03:26;20.80;88.80
8342;DHT22;4208;49.406;10.788;2022-08-19T03:06:14;20.80;88.80
8342;DHT22;4208;49.406;10.788;2022-08-19T03:08:44;20.80;88.70
8342;DHT22;4208;49.406;10.788;2022-08-19T03:11:17;20.80;88.70
8342;DHT22;4208;49.406;10.788;2022-08-19T03:13:46;20.80;88.70
8342;DHT22;4208;49.406;10.788;2022-08-19T03:16:16;20.80;88.70
8342;DHT22;4208;49.406;10.788;2022-08-19T03:18:45;20.80;88.80
8342;DHT22;4208;49.406;10.788;2022-08-19T03:21:15;20.80;88.80
8342;DHT22;4208;49.406;10.788;2022-08-19T03:23:45;20.80;88.70
8342;DHT22;4208;49.406;10.788;2022-08-19T03:26:15;20.80;88.70
8342;DHT22;4208;49.406;10.788;2022-08-19T03:28:44;20.80;88.60
8342;DHT22;4208;49.406;10.788;2022-08-19T03:31:25;20.90;88.50
8342;DHT22;4208;49.406;10.788;2022-08-19T03:34:17;20.90;88.40
8342;DHT22;4208;49.406;10.788;2022-08-19T03:36:47;20.80;88.40
8342;DHT22;4208;49.406;10.788;2022-08-19T03:39:16;20.80;88.40
8342;DHT22;4208;49.406;10.788;2022-08-19T03:41:48;20.80;89.10
8342;DHT22;4208;49.406;10.788;2022-08-19T03:44:37;20.80;88.60
8342;DHT22;4208;49.406;10.788;2022-08-19T03:47:06;20.80;88.80
8342;DHT22;4208;49.406;10.788;2022-08-19T03:49:35;20.80;88.90
8342;DHT22;4208;49.406;10.788;2022-08-19T03:52:04;20.80;89.00
8342;DHT22;4208;49.406;10.788;2022-08-19T03:54:35;20.70;89.00
8342;DHT22;4208;49.406;10.788;2022-08-19T03:57:06;20.70;89.10
8342;DHT22;4208;49.406;10.788;2022-08-19T03:59:38;20.80;88.80
8342;DHT22;4208;49.406;10.788;2022-08-19T04:02:10;20.80;88.40
8342;DHT22;4208;49.406;10.788;2022-08-19T04:04:41;20.80;88.70
8342;DHT22;4208;49.406;10.788;2022-08-19T04:07:12;20.70;88.40
8342;DHT22;4208;49.406;10.788;2022-08-19T04:09:43;20.70;88.50
8342;DHT22;4208;49.406;10.788;2022-08-19T04:12:14;20.70;88.40
8342;DHT22;4208;49.406;10.788;2022-08-19T04:14:43;20.70;88.30
8342;DHT22;4208;49.406;10.788;2022-08-19T04:17:12;20.70;88.40
8342;DHT22;4208;49.406;10.788;2022-08-19T04:19:41;20.70;88.40
8342;DHT22;4208;49.406;10.788;2022-08-19T04:22:11;20.70;88.20
8342;DHT22;4208;49.406;10.788;2022-08-19T04:24:39;20.70;88.30
8342;DHT22;4208;49.406;10.788;2022-08-19T04:27:08;20.60;88.30
8342;DHT22;4208;49.406;10.788;2022-08-19T04:29:38;20.60;88.40
8342;DHT22;4208;49.406;10.788;2022-08-19T04:32:11;20.50;88.40
8342;DHT22;4208;49.406;10.788;2022-08-19T04:34:42;20.50;88.50
8342;DHT22;4208;49.406;10.788;2022-08-19T04:37:31;20.50;88.50
8342;DHT22;4208;49.406;10.788;2022-08-19T04:40:04;20.50;88.50
8342;DHT22;4208;49.406;10.788;2022-08-19T04:42:51;20.60;88.50
8342;DHT22;4208;49.406;10.788;2022-08-19T04:45:22;20.60;88.30
8342;DHT22;4208;49.406;10.788;2022-08-19T04:47:55;20.50;88.30
8342;DHT22;4208;49.406;10.788;2022-08-19T04:50:44;20.60;88.40
8342;DHT22;4208;49.406;10.788;2022-08-19T04:53:13;20.50;88.40
8342;DHT22;4208;49.406;10.788;2022-08-19T04:55:42;20.50;88.30
8342;DHT22;4208;49.406;10.788;2022-08-19T04:58:11;20.50;88.40
8342;DHT22;4208;49.406;10.788;2022-08-19T05:00:42;20.60;88.50
8342;DHT22;4208;49.406;10.788;2022-08-19T05:03:11;20.60;88.40
8342;DHT22;4208;49.406;10.788;2022-08-19T05:05:40;20.60;88.20
8342;DHT22;4208;49.406;10.788;2022-08-19T05:08:12;20.60;88.40
8342;DHT22;4208;49.406;10.788;2022-08-19T05:10:57;20.50;88.40
8342;DHT22;4208;49.406;10.788;2022-08-19T05:13:26;20.50;88.30
8342;DHT22;4208;49.406;10.788;2022-08-19T05:15:57;20.50;88.40
8342;DHT22;4208;49.406;10.788;2022-08-19T05:18:27;20.50;88.50
8342;DHT22;4208;49.406;10.788;2022-08-19T05:21:15;20.50;88.40
8342;DHT22;4208;49.406;10.788;2022-08-19T05:24:02;20.50;88.40
8342;DHT22;4208;49.406;10.788;2022-08-19T05:26:35;20.50;88.50
8342;DHT22;4208;49.406;10.788;2022-08-19T05:29:04;20.50;88.40
8342;DHT22;4208;49.406;10.788;2022-08-19T05:31:35;20.60;88.20
8342;DHT22;4208;49.406;10.788;2022-08-19T05:34:08;20.60;88.20
8342;DHT22;4208;49.406;10.788;2022-08-19T05:36:47;20.60;88.30
8342;DHT22;4208;49.406;10.788;2022-08-19T05:39:18;20.60;88.40
8342;DHT22;4208;49.406;10.788;2022-08-19T05:41:49;20.60;88.10
8342;DHT22;4208;49.406;10.788;2022-08-19T05:44:19;20.60;88.00
8342;DHT22;4208;49.406;10.788;2022-08-19T05:46:50;20.70;88.10
8342;DHT22;4208;49.406;10.788;2022-08-19T05:49:22;20.70;88.00
8342;DHT22;4208;49.406;10.788;2022-08-19T05:51:51;20.70;87.80
8342;DHT22;4208;49.406;10.788;2022-08-19T05:54:20;20.70;88.60
8342;DHT22;4208;49.406;10.788;2022-08-19T05:56:51;20.70;88.00
8342;DHT22;4208;49.406;10.788;2022-08-19T05:59:21;20.70;88.00
8342;DHT22;4208;49.406;10.788;2022-08-19T06:01:53;20.70;88.20
8342;DHT22;4208;49.406;10.788;2022-08-19T06:04:24;20.70;88.20
8342;DHT22;4208;49.406;10.788;2022-08-19T06:06:54;20.60;88.20
8342;DHT22;4208;49.406;10.788;2022-08-19T06:09:23;20.70;88.20
8342;DHT22;4208;49.406;10.788;2022-08-19T06:11:54;20.70;88.30
8342;DHT22;4208;49.406;10.788;2022-08-19T06:14:29;20.70;88.20
8342;DHT22;4208;49.406;10.788;2022-08-19T06:17:01;20.80;88.30
8342;DHT22;4208;49.406;10.788;2022-08-19T06:19:33;20.80;88.30
8342;DHT22;4208;49.406;10.788;2022-08-19T06:22:07;20.70;88.40
8342;DHT22;4208;49.406;10.788;2022-08-19T06:24:37;20.80;88.30
8342;DHT22;4208;49.406;10.788;2022-08-19T06:27:06;20.80;88.10
8342;DHT22;4208;49.406;10.788;2022-08-19T06:29:35;20.80;88.10
8342;DHT22;4208;49.406;10.788;2022-08-19T06:32:05;20.80;88.10
8342;DHT22;4208;49.406;10.788;2022-08-19T06:34:34;20.80;87.90
8342;DHT22;4208;49.406;10.788;2022-08-19T06:37:03;20.90;87.70
8342;DHT22;4208;49.406;10.788;2022-08-19T06:39:34;20.90;87.60
8342;DHT22;4208;49.406;10.788;2022-08-19T06:42:05;20.90;87.70
8342;DHT22;4208;49.406;10.788;2022-08-19T06:44:39;20.90;87.60
8342;DHT22;4208;49.406;10.788;2022-08-19T06:47:14;20.90;87.50
8342;DHT22;4208;49.406;10.788;2022-08-19T06:49:53;20.90;87.50
8342;DHT22;4208;49.406;10.788;2022-08-19T06:52:27;21.00;87.10
8342;DHT22;4208;49.406;10.788;2022-08-19T06:54:56;21.00;87.20
8342;DHT22;4208;49.406;10.788;2022-08-19T06:57:26;21.00;87.20
8342;DHT22;4208;49.406;10.788;2022-08-19T06:59:58;21.00;87.20
8342;DHT22;4208;49.406;10.788;2022-08-19T07:02:29;21.00;87.30
8342;DHT22;4208;49.406;10.788;2022-08-19T07:04:58;21.10;87.60
8342;DHT22;4208;49.406;10.788;2022-08-19T07:07:32;21.20;87.20
8342;DHT22;4208;49.406;10.788;2022-08-19T07:10:04;21.20;87.00
8342;DHT22;4208;49.406;10.788;2022-08-19T07:12:34;21.30;86.60
8342;DHT22;4208;49.406;10.788;2022-08-19T07:15:05;21.30;87.30
8342;DHT22;4208;49.406;10.788;2022-08-19T07:17:37;21.20;86.60
8342;DHT22;4208;49.406;10.788;2022-08-19T07:20:09;21.20;86.90
8342;DHT22;4208;49.406;10.788;2022-08-19T07:22:38;21.20;87.00
8342;DHT22;4208;49.406;10.788;2022-08-19T07:25:09;21.20;87.10
8342;DHT22;4208;49.406;10.788;2022-08-19T07:27:38;21.20;87.30
8342;DHT22;4208;49.406;10.788;2022-08-19T07:30:08;21.30;87.10
8342;DHT22;4208;49.406;10.788;2022-08-19T07:32:40;21.30;87.00
8342;DHT22;4208;49.406;10.788;2022-08-19T07:35:09;21.30;86.90
8342;DHT22;4208;49.406;10.788;2022-08-19T07:37:38;21.30;87.10
8342;DHT22;4208;49.406;10.788;2022-08-19T07:40:12;21.30;87.20
8342;DHT22;4208;49.406;10.788;2022-08-19T07:42:41;21.30;87.20
8342;DHT22;4208;49.406;10.788;2022-08-19T07:45:11;21.30;87.20
8342;DHT22;4208;49.406;10.788;2022-08-19T07:47:41;21.30;87.00
8342;DHT22;4208;49.406;10.788;2022-08-19T07:50:18;21.30;86.70
8342;DHT22;4208;49.406;10.788;2022-08-19T07:52:48;21.30;86.90
8342;DHT22;4208;49.406;10.788;2022-08-19T07:55:19;21.30;87.00
8342;DHT22;4208;49.406;10.788;2022-08-19T07:58:09;21.20;87.20
8342;DHT22;4208;49.406;10.788;2022-08-19T08:00:38;21.20;87.30
8342;DHT22;4208;49.406;10.788;2022-08-19T08:03:09;21.20;87.30
8342;DHT22;4208;49.406;10.788;2022-08-19T08:05:38;21.20;87.40
8342;DHT22;4208;49.406;10.788;2022-08-19T08:08:35;21.20;87.40
8342;DHT22;4208;49.406;10.788;2022-08-19T08:11:24;21.20;87.10
8342;DHT22;4208;49.406;10.788;2022-08-19T08:13:55;21.30;87.00
8342;DHT22;4208;49.406;10.788;2022-08-19T08:16:33;21.20;87.10
8342;DHT22;4208;49.406;10.788;2022-08-19T08:19:07;21.20;87.20
8342;DHT22;4208;49.406;10.788;2022-08-19T08:21:53;21.20;87.10
8342;DHT22;4208;49.406;10.788;2022-08-19T08:24:22;21.30;86.90
8342;DHT22;4208;49.406;10.788;2022-08-19T08:26:55;21.30;86.70
8342;DHT22;4208;49.406;10.788;2022-08-19T08:29:26;21.30;86.50
8342;DHT22;4208;49.406;10.788;2022-08-19T08:32:02;21.40;86.60
8342;DHT22;4208;49.406;10.788;2022-08-19T08:34:42;21.40;86.30
8342;DHT22;4208;49.406;10.788;2022-08-19T08:37:16;21.40;86.30
8342;DHT22;4208;49.406;10.788;2022-08-19T08:39:45;21.40;86.30
8342;DHT22;4208;49.406;10.788;2022-08-19T08:42:19;21.50;86.20
8342;DHT22;4208;49.406;10.788;2022-08-19T08:44:57;21.50;86.20
8342;DHT22;4208;49.406;10.788;2022-08-19T08:47:30;21.60;86.70
8342;DHT22;4208;49.406;10.788;2022-08-19T08:50:05;21.70;86.50
8342;DHT22;4208;49.406;10.788;2022-08-19T08:52:36;21.90;85.60
8342;DHT22;4208;49.406;10.788;2022-08-19T08:55:18;21.90;85.00
8342;DHT22;4208;49.406;10.788;2022-08-19T08:57:51;21.90;85.30
8342;DHT22;4208;49.406;10.788;2022-08-19T09:00:25;21.90;85.60
8342;DHT22;4208;49.406;10.788;2022-08-19T09:02:56;21.90;85.90
8342;DHT22;4208;49.406;10.788;2022-08-19T09:05:36;21.90;85.40
8342;DHT22;4208;49.406;10.788;2022-08-19T09:08:25;22.00;85.00
8342;DHT22;4208;49.406;10.788;2022-08-19T09:10:57;22.00;85.10
8342;DHT22;4208;49.406;10.788;2022-08-19T09:13:30;21.90;85.10
8342;DHT22;4208;49.406;10.788;2022-08-19T09:16:06;21.90;85.20
8342;DHT22;4208;49.406;10.788;2022-08-19T09:18:42;21.90;85.30
8342;DHT22;4208;49.406;10.788;2022-08-19T09:21:13;21.80;85.50
8342;DHT22;4208;49.406;10.788;2022-08-19T09:23:43;21.80;85.60
8342;DHT22;4208;49.406;10.788;2022-08-19T09:26:21;21.80;85.70
8342;DHT22;4208;49.406;10.788;2022-08-19T09:29:10;21.90;85.90
8342;DHT22;4208;49.406;10.788;2022-08-19T09:31:39;21.90;85.60
8342;DHT22;4208;49.406;10.788;2022-08-19T09:34:08;21.90;85.30
8342;DHT22;4208;49.406;10.788;2022-08-19T09:36:50;21.90;85.70
8342;DHT22;4208;49.406;10.788;2022-08-19T09:39:21;21.90;85.70
8342;DHT22;4208;49.406;10.788;2022-08-19T09:41:50;21.80;85.50
8342;DHT22;4208;49.406;10.788;2022-08-19T09:44:20;21.90;85.50
8342;DHT22;4208;49.406;10.788;2022-08-19T09:46:49;21.90;85.70
8342;DHT22;4208;49.406;10.788;2022-08-19T09:49:19;21.90;85.50
8342;DHT22;4208;49.406;10.788;2022-08-19T09:51:52;22.00;85.40
8342;DHT22;4208;49.406;10.788;2022-08-19T09:54:23;22.00;85.60
8342;DHT22;4208;49.406;10.788;2022-08-19T09:56:52;22.00;85.60
8342;DHT22;4208;49.406;10.788;2022-08-19T09:59:21;22.10;85.90
8342;DHT22;4208;49.406;10.788;2022-08-19T10:01:50;22.10;85.80
8342;DHT22;4208;49.406;10.788;2022-08-19T10:04:20;22.10;85.70
8342;DHT22;4208;49.406;10.788;2022-08-19T10:06:55;22.20;85.50
8342;DHT22;4208;49.406;10.788;2022-08-19T10:09:24;22.30;85.50
8342;DHT22;4208;49.406;10.788;2022-08-19T10:12:02;22.30;85.00
8342;DHT22;4208;49.406;10.788;2022-08-19T10:14:33;22.30;85.10
8342;DHT22;4208;49.406;10.788;2022-08-19T10:17:02;22.30;84.90
8342;DHT22;4208;49.406;10.788;2022-08-19T10:19:46;22.30;85.00
8342;DHT22;4208;49.406;10.788;2022-08-19T10:22:24;22.30;85.10
8342;DHT22;4208;49.406;10.788;2022-08-19T10:24:53;22.30;85.00
8342;DHT22;4208;49.406;10.788;2022-08-19T10:27:22;22.30;85.30
8342;DHT22;4208;49.406;10.788;2022-08-19T10:29:53;22.30;85.50
8342;DHT22;4208;49.406;10.788;2022-08-19T10:32:25;22.30;85.30
8342;DHT22;4208;49.406;10.788;2022-08-19T10:35:01;22.30;85.00
8342;DHT22;4208;49.406;10.788;2022-08-19T10:37:34;22.30;85.00
8342;DHT22;4208;49.406;10.788;2022-08-19T10:40:18;22.30;85.30
8342;DHT22;4208;49.406;10.788;2022-08-19T10:42:47;22.20;85.30
8342;DHT22;4208;49.406;10.788;2022-08-19T10:45:15;22.20;85.30
8342;DHT22;4208;49.406;10.788;2022-08-19T10:47:44;22.20;85.20
8342;DHT22;4208;49.406;10.788;2022-08-19T10:50:14;22.20;85.50
8342;DHT22;4208;49.406;10.788;2022-08-19T10:53:06;22.20;85.40
8342;DHT22;4208;49.406;10.788;2022-08-19T10:55:36;22.20;85.50
8342;DHT22;4208;49.406;10.788;2022-08-19T10:58:22;22.20;85.60
8342;DHT22;4208;49.406;10.788;2022-08-19T11:00:54;22.20;85.90
8342;DHT22;4208;49.406;10.788;2022-08-19T11:03:25;22.10;86.00
8342;DHT22;4208;49.406;10.788;2022-08-19T11:05:59;22.10;86.30
8342;DHT22;4208;49.406;10.788;2022-08-19T11:08:29;22.10;86.20
8342;DHT22;4208;49.406;10.788;2022-08-19T11:11:00;22.10;86.20
8342;DHT22;4208;49.406;10.788;2022-08-19T11:13:32;22.10;86.20
8342;DHT22;4208;49.406;10.788;2022-08-19T11:16:05;22.10;86.30
8342;DHT22;4208;49.406;10.788;2022-08-19T11:18:38;22.10;85.90
8342;DHT22;4208;49.406;10.788;2022-08-19T11:21:09;22.10;86.10
8342;DHT22;4208;49.406;10.788;2022-08-19T11:23:40;22.10;86.20
8342;DHT22;4208;49.406;10.788;2022-08-19T11:26:09;22.10;86.20
8342;DHT22;4208;49.406;10.788;2022-08-19T11:28:38;22.10;86.10
8342;DHT22;4208;49.406;10.788;2022-08-19T11:31:10;22.10;86.20
8342;DHT22;4208;49.406;10.788;2022-08-19T11:33:40;22.10;86.40
8342;DHT22;4208;49.406;10.788;2022-08-19T11:36:14;22.10;86.90
8342;DHT22;4208;49.406;10.788;2022-08-19T11:38:45;22.00;87.70
8342;DHT22;4208;49.406;10.788;2022-08-19T11:41:17;22.00;88.10
8342;DHT22;4208;49.406;10.788;2022-08-19T11:43:46;21.90;88.20
8342;DHT22;4208;49.406;10.788;2022-08-19T11:46:16;21.90;88.40
8342;DHT22;4208;49.406;10.788;2022-08-19T11:48:45;21.90;88.60
8342;DHT22;4208;49.406;10.788;2022-08-19T11:51:17;21.90;89.90
8342;DHT22;4208;49.406;10.788;2022-08-19T11:53:48;21.80;90.40
8342;DHT22;4208;49.406;10.788;2022-08-19T11:56:18;21.70;90.50
8342;DHT22;4208;49.406;10.788;2022-08-19T11:58:47;21.70;90.70
8342;DHT22;4208;49.406;10.788;2022-08-19T12:01:18;21.60;90.80
8342;DHT22;4208;49.406;10.788;2022-08-19T12:03:49;21.60;90.90
8342;DHT22;4208;49.406;10.788;2022-08-19T12:06:21;21.60;91.10
8342;DHT22;4208;49.406;10.788;2022-08-19T12:08:52;21.60;91.20
8342;DHT22;4208;49.406;10.788;2022-08-19T12:11:23;21.60;91.00
8342;DHT22;4208;49.406;10.788;2022-08-19T12:13:52;21.60;91.10
8342;DHT22;4208;49.406;10.788;2022-08-19T12:16:25;21.60;91.10
8342;DHT22;4208;49.406;10.788;2022-08-19T12:18:54;21.60;91.00
8342;DHT22;4208;49.406;10.788;2022-08-19T12:21:25;21.60;90.50
8342;DHT22;4208;49.406;10.788;2022-08-19T12:23:58;21.60;90.60
8342;DHT22;4208;49.406;10.788;2022-08-19T12:26:29;21.60;90.30
8342;DHT22;4208;49.406;10.788;2022-08-19T12:28:59;21.60;90.40
8342;DHT22;4208;49.406;10.788;2022-08-19T12:31:28;21.60;90.60
8342;DHT22;4208;49.406;10.788;2022-08-19T12:33:57;21.60;90.60
8342;DHT22;4208;49.406;10.788;2022-08-19T12:36:26;21.50;90.60
8342;DHT22;4208;49.406;10.788;2022-08-19T12:38:58;21.70;90.30
8342;DHT22;4208;49.406;10.788;2022-08-19T12:41:27;21.70;90.30
8342;DHT22;4208;49.406;10.788;2022-08-19T12:43:55;21.70;90.10
8342;DHT22;4208;49.406;10.788;2022-08-19T12:46:25;21.80;90.20
8342;DHT22;4208;49.406;10.788;2022-08-19T12:48:54;21.80;90.30
8342;DHT22;4208;49.406;10.788;2022-08-19T12:51:23;21.80;90.40
8342;DHT22;4208;49.406;10.788;2022-08-19T12:53:52;21.80;90.30
8342;DHT22;4208;49.406;10.788;2022-08-19T12:56:22;21.80;90.50
8342;DHT22;4208;49.406;10.788;2022-08-19T12:58:51;21.80;90.50
8342;DHT22;4208;49.406;10.788;2022-08-19T13:01:20;21.70;90.30
8342;DHT22;4208;49.406;10.788;2022-08-19T13:03:50;21.70;90.20
8342;DHT22;4208;49.406;10.788;2022-08-19T13:06:20;21.60;90.30
8342;DHT22;4208;49.406;10.788;2022-08-19T13:08:50;21.50;90.80
8342;DHT22;4208;49.406;10.788;2022-08-19T13:11:25;21.50;92.00
8342;DHT22;4208;49.406;10.788;2022-08-19T13:13:54;21.30;92.70
8342;DHT22;4208;49.406;10.788;2022-08-19T13:16:23;21.00;93.50
8342;DHT22;4208;49.406;10.788;2022-08-19T13:18:52;20.90;94.00
8342;DHT22;4208;49.406;10.788;2022-08-19T13:21:22;20.60;94.50
8342;DHT22;4208;49.406;10.788;2022-08-19T13:23:52;20.50;94.40
8342;DHT22;4208;49.406;10.788;2022-08-19T13:26:21;20.30;94.70
8342;DHT22;4208;49.406;10.788;2022-08-19T13:28:51;20.20;95.20
8342;DHT22;4208;49.406;10.788;2022-08-19T13:31:40;20.10;95.50
8342;DHT22;4208;49.406;10.788;2022-08-19T13:34:30;19.90;95.80
8342;DHT22;4208;49.406;10.788;2022-08-19T13:37:01;19.80;96.20
8342;DHT22;4208;49.406;10.788;2022-08-19T13:39:31;19.80;96.80
8342;DHT22;4208;49.406;10.788;2022-08-19T13:42:02;19.80;96.90
8342;DHT22;4208;49.406;10.788;2022-08-19T13:44:33;19.70;97.20
8342;DHT22;4208;49.406;10.788;2022-08-19T13:47:04;19.60;97.30
8342;DHT22;4208;49.406;10.788;2022-08-19T13:49:35;19.60;97.50
8342;DHT22;4208;49.406;10.788;2022-08-19T13:52:04;19.50;97.70
8342;DHT22;4208;49.406;10.788;2022-08-19T13:54:33;19.40;97.70
8342;DHT22;4208;49.406;10.788;2022-08-19T13:57:02;19.40;98.20
8342;DHT22;4208;49.406;10.788;2022-08-19T13:59:32;19.30;98.10
8342;DHT22;4208;49.406;10.788;2022-08-19T14:02:01;19.30;98.40
8342;DHT22;4208;49.406;10.788;2022-08-19T14:04:32;19.20;98.70
8342;DHT22;4208;49.406;10.788;2022-08-19T14:07:01;19.20;99.00
8342;DHT22;4208;49.406;10.788;2022-08-19T14:09:30;19.20;99.30
8342;DHT22;4208;49.406;10.788;2022-08-19T14:11:59;19.10;99.50
8342;DHT22;4208;49.406;10.788;2022-08-19T14:14:28;19.00;99.90
8342;DHT22;4208;49.406;10.788;2022-08-19T14:16:58;19.00;99.90
8342;DHT22;4208;49.406;10.788;2022-08-19T14:19:27;19.00;99.90
8342;DHT22;4208;49.406;10.788;2022-08-19T14:21:56;19.00;99.90
8342;DHT22;4208;49.406;10.788;2022-08-19T14:24:25;19.00;99.90
8342;DHT22;4208;49.406;10.788;2022-08-19T14:26:54;19.00;99.90
8342;DHT22;4208;49.406;10.788;2022-08-19T14:29:24;19.00;99.90
8342;DHT22;4208;49.406;10.788;2022-08-19T14:31:52;19.00;99.90
8342;DHT22;4208;49.406;10.788;2022-08-19T14:34:22;19.00;99.90
8342;DHT22;4208;49.406;10.788;2022-08-19T14:36:52;18.90;99.90
8342;DHT22;4208;49.406;10.788;2022-08-19T14:39:21;18.90;99.90
8342;DHT22;4208;49.406;10.788;2022-08-19T14:41:49;18.80;99.90
8342;DHT22;4208;49.406;10.788;2022-08-19T14:44:18;18.70;99.90
8342;DHT22;4208;49.406;10.788;2022-08-19T14:46:47;18.60;99.90
8342;DHT22;4208;49.406;10.788;2022-08-19T14:49:17;18.50;99.90
8342;DHT22;4208;49.406;10.788;2022-08-19T14:51:47;18.50;99.90
8342;DHT22;4208;49.406;10.788;2022-08-19T14:54:16;18.50;99.90
8342;DHT22;4208;49.406;10.788;2022-08-19T14:56:45;18.50;99.90
8342;DHT22;4208;49.406;10.788;2022-08-19T14:59:14;18.40;99.90
8342;DHT22;4208;49.406;10.788;2022-08-19T15:01:43;18.40;99.90
8342;DHT22;4208;49.406;10.788;2022-08-19T15:04:12;18.30;99.90
8342;DHT22;4208;49.406;10.788;2022-08-19T15:06:41;18.30;99.90
8342;DHT22;4208;49.406;10.788;2022-08-19T15:09:11;18.30;99.90
8342;DHT22;4208;49.406;10.788;2022-08-19T15:11:40;18.30;99.90
8342;DHT22;4208;49.406;10.788;2022-08-19T15:14:10;18.30;99.90
8342;DHT22;4208;49.406;10.788;2022-08-19T15:16:38;18.30;99.90
8342;DHT22;4208;49.406;10.788;2022-08-19T15:19:09;18.30;99.90
8342;DHT22;4208;49.406;10.788;2022-08-19T15:21:39;18.30;99.90
8342;DHT22;4208;49.406;10.788;2022-08-19T15:24:07;18.30;99.90
8342;DHT22;4208;49.406;10.788;2022-08-19T15:26:38;18.30;99.90
8342;DHT22;4208;49.406;10.788;2022-08-19T15:29:06;18.20;99.90
8342;DHT22;4208;49.406;10.788;2022-08-19T15:31:35;18.30;99.90
8342;DHT22;4208;49.406;10.788;2022-08-19T15:34:05;18.20;99.90
8342;DHT22;4208;49.406;10.788;2022-08-19T15:36:35;18.20;99.90
8342;DHT22;4208;49.406;10.788;2022-08-19T15:39:04;18.20;99.90
8342;DHT22;4208;49.406;10.788;2022-08-19T15:41:33;18.20;99.90
8342;DHT22;4208;49.406;10.788;2022-08-19T15:44:07;18.20;99.90
8342;DHT22;4208;49.406;10.788;2022-08-19T15:46:38;18.20;99.90
8342;DHT22;4208;49.406;10.788;2022-08-19T15:49:08;18.20;99.90
8342;DHT22;4208;49.406;10.788;2022-08-19T15:51:38;18.20;99.90
8342;DHT22;4208;49.406;10.788;2022-08-19T15:54:11;18.10;99.90
8342;DHT22;4208;49.406;10.788;2022-08-19T15:56:40;18.10;99.90
8342;DHT22;4208;49.406;10.788;2022-08-19T15:59:28;18.10;99.90
8342;DHT22;4208;49.406;10.788;2022-08-19T16:02:17;18.10;99.90
8342;DHT22;4208;49.406;10.788;2022-08-19T16:05:06;18.10;99.90
8342;DHT22;4208;49.406;10.788;2022-08-19T16:07:52;18.10;99.90
8342;DHT22;4208;49.406;10.788;2022-08-19T16:10:22;18.10;99.90
8342;DHT22;4208;49.406;10.788;2022-08-19T16:12:53;18.10;99.90
8342;DHT22;4208;49.406;10.788;2022-08-19T16:15:25;18.10;99.90